Elmira Corning Regional Airport
KELM : now visible

Airfield :











YOU CAN JOIN US ON...

 
LOGIN :

Register | Disclaimer

   EN    FR    IT 

 









Legend :    VFR   Marginal VFR   IFR   Intensive IFR   Very Intensive IFR
Visi :
Ceiling :
>= 8 km
>= 3000ft
5 to 8 km
1000 to 3000 ft
1500m to 5 km
500 to 1000 ft
800 to 1500m
200 to 500 ft
< 800m
< 200 ft
Symbols :   Thunderstorms  Fog  Heavy snow  Heavy precipitations  Wind > 20 kt







- Airport Elevation : 954 ft
- IATA code : ELM


KELM - Elmira Corning Regional

CURRENT METAR :
  • 181853Z AUTO VRB05KT 10SM SCT030 29/21 A2990 RMK AO2 SLP118 T02940211

EXPIRED METARs :
  • 181753Z 10004KT 10SM CLR 29/22 A2991 RMK AO2 SLP120 T02890217 10289 20233 58016
  • 181653Z 11003KT 10SM FEW015 OVC060 27/22 A2992 RMK AO2 SLP125 T02670222

TAF KELM
Valid from the 18 at 18:00 until the 19 at 18:00 UTC


181733Z 1818/1918 VRB03KT P6SM SCT045
FM190000 00000KT P6SM SCT100
FM190800 VRB03KT 3SM BR SCT002 SCT100
FM191300 23005KT P6SM SCT050
FM191600 23007KT P6SM BKN050
KZNY FIR / North America



MET'MAP, your aeronautical weather chart ! - Copyright ORBIFLY December 2007 - Disclaimer

ORBIFLY MET'MAP TEAM :

Programming & Development : Alexandra Zaïnal
Concept & Development : Baudouin d'Aumeries
Co-Development & Prog : Marc-Olivier Méhu
Technical & hardware support : Manuel Goepfert

Contact : metmap@orbifly.com




SOURCES & CREDITS :

   NOAA       Earth
Advisory